createdAt,value
2022-11-10T00:02:31.649Z,98567.00
2022-11-10T00:05:38.172Z,98568.91
2022-11-10T00:08:43.116Z,98584.50
2022-11-10T00:11:48.839Z,98588.53
2022-11-10T00:15:23.729Z,98594.44
2022-11-10T00:18:28.649Z,98592.31
2022-11-10T00:21:33.698Z,98600.09
2022-11-10T00:24:38.565Z,98595.81
2022-11-10T00:27:43.494Z,98593.13
2022-11-10T00:30:50.370Z,98597.97
2022-11-10T00:33:54.858Z,98597.69
2022-11-10T00:37:08.143Z,98610.03
2022-11-10T00:40:13.456Z,98607.34
2022-11-10T00:43:21.300Z,98608.44
2022-11-10T00:46:31.597Z,98613.56
2022-11-10T00:49:36.316Z,98623.53
2022-11-10T00:52:41.426Z,98615.72
2022-11-10T00:55:47.005Z,98633.75
2022-11-10T00:58:52.928Z,98634.28
2022-11-10T01:02:01.834Z,98636.44
2022-11-10T01:05:06.660Z,98641.78
2022-11-10T01:08:11.874Z,98641.25
2022-11-10T01:11:17.980Z,98641.50
2022-11-10T01:14:22.978Z,98649.84
2022-11-10T01:17:31.352Z,98651.75
2022-11-10T01:20:37.491Z,98657.38
2022-11-10T01:23:42.507Z,98660.06
2022-11-10T01:26:47.462Z,98669.97
2022-11-10T01:29:52.482Z,98673.44
2022-11-10T01:33:05.082Z,98672.38
2022-11-10T01:36:11.163Z,98676.41
2022-11-10T01:39:18.826Z,98673.44
2022-11-10T01:42:28.524Z,98682.31
2022-11-10T01:45:53.497Z,98680.97
2022-11-10T01:49:02.880Z,98673.44
2022-11-10T01:52:12.618Z,98684.44
2022-11-10T01:55:17.898Z,98690.09
2022-11-10T01:58:27.446Z,98696.53
2022-11-10T02:01:32.833Z,98696.81
2022-11-10T02:04:40.976Z,98697.38
2022-11-10T02:07:46.449Z,98696.28
2022-11-10T02:10:51.617Z,98700.28
2022-11-10T02:14:00.497Z,98698.91
2022-11-10T02:17:05.749Z,98695.44
2022-11-10T02:20:15.094Z,98704.25
2022-11-10T02:23:49.131Z,98704.78
2022-11-10T02:26:58.621Z,98714.38
2022-11-10T02:30:04.250Z,98722.97
2022-11-10T02:33:09.142Z,98729.38
2022-11-10T02:36:13.970Z,98725.06
2022-11-10T02:39:20.649Z,98736.00
2022-11-10T02:42:25.428Z,98738.94
2022-11-10T02:45:30.387Z,98736.75
2022-11-10T02:48:36.315Z,98744.22
2022-11-10T02:51:42.799Z,98752.50
2022-11-10T02:54:49.709Z,98756.22
2022-11-10T02:57:54.522Z,98754.59
2022-11-10T03:00:59.917Z,98759.97
2022-11-10T03:04:04.813Z,98767.47
2022-11-10T03:07:09.736Z,98774.88
2022-11-10T03:10:16.135Z,98780.22
2022-11-10T03:13:21.281Z,98789.31
2022-11-10T03:16:26.722Z,98786.63
2022-11-10T03:19:31.715Z,98790.34
2022-11-10T03:22:37.385Z,98799.75
2022-11-10T03:25:44.586Z,98796.81
2022-11-10T03:28:49.656Z,98796.31
2022-11-10T03:31:54.458Z,98798.53
2022-11-10T03:35:00.163Z,98795.06
2022-11-10T03:38:05.389Z,98799.09
2022-11-10T03:41:20.164Z,98803.19
2022-11-10T03:44:25.618Z,98809.34
2022-11-10T03:47:30.635Z,98812.59
2022-11-10T03:50:35.669Z,98815.28
2022-11-10T03:53:40.947Z,98816.63
2022-11-10T03:56:47.339Z,98822.56
2022-11-10T03:59:52.127Z,98824.38
2022-11-10T04:02:56.921Z,98830.00
2022-11-10T04:06:18.231Z,98829.72
2022-11-10T04:09:23.160Z,98830.28
2022-11-10T04:12:46.383Z,98841.00
2022-11-10T04:15:52.318Z,98846.91
2022-11-10T04:18:57.152Z,98855.22
2022-11-10T04:22:01.896Z,98861.97
2022-11-10T04:25:06.711Z,98863.00
2022-11-10T04:28:12.955Z,98871.06
2022-11-10T04:31:18.874Z,98866.78
2022-11-10T04:34:23.745Z,98871.28
2022-11-10T04:37:28.073Z,98860.22
2022-11-10T04:40:33.030Z,98866.59
2022-11-10T04:43:39.941Z,98885.06
2022-11-10T04:46:44.659Z,98895.41
2022-11-10T04:49:49.577Z,98895.78
2022-11-10T04:52:54.495Z,98902.69
2022-11-10T04:55:59.312Z,98903.06
2022-11-10T04:59:05.684Z,98904.63
2022-11-10T05:02:10.518Z,98907.94
2022-11-10T05:05:15.836Z,98904.81
2022-11-10T05:08:20.851Z,98913.03
2022-11-10T05:11:25.725Z,98926.03
2022-11-10T05:14:33.451Z,98931.56
2022-11-10T05:17:38.719Z,98938.91
2022-11-10T05:20:43.667Z,98939.63
2022-11-10T05:23:48.717Z,98944.56
2022-11-10T05:26:53.693Z,98943.94
2022-11-10T05:30:03.474Z,98950.75
2022-11-10T05:33:09.018Z,98953.59
2022-11-10T05:36:13.862Z,98955.94
2022-11-10T05:39:19.405Z,98964.91
2022-11-10T05:42:24.200Z,98962.50
2022-11-10T05:45:31.426Z,98958.94
2022-11-10T05:48:36.446Z,98956.91
2022-11-10T05:51:41.478Z,98964.19
2022-11-10T05:54:46.405Z,98959.31
2022-11-10T05:57:52.834Z,98961.69
2022-11-10T06:01:01.758Z,98969.34
2022-11-10T06:04:06.848Z,98972.75
2022-11-10T06:07:12.570Z,98978.81
2022-11-10T06:10:17.606Z,98990.91
2022-11-10T06:13:22.913Z,99002.03
2022-11-10T06:16:30.271Z,99014.63
2022-11-10T06:19:35.139Z,99008.78
2022-11-10T06:22:39.702Z,99008.78
2022-11-10T06:25:44.955Z,99012.94
2022-11-10T06:28:50.023Z,99024.34
2022-11-10T06:31:56.661Z,99038.44
2022-11-10T06:35:02.038Z,99044.59
2022-11-10T06:38:07.945Z,99062.81
2022-11-10T06:41:12.643Z,99065.72
2022-11-10T06:44:19.485Z,99072.69
2022-11-10T06:47:25.811Z,99083.38
2022-11-10T06:50:31.120Z,99089.16
2022-11-10T06:53:36.062Z,99092.25
2022-11-10T06:56:40.836Z,99101.28
2022-11-10T06:59:45.963Z,99110.34
2022-11-10T07:03:03.631Z,99111.75
2022-11-10T07:06:08.715Z,99122.72
2022-11-10T07:09:14.281Z,99116.22
2022-11-10T07:12:19.908Z,99116.25
2022-11-10T07:15:25.231Z,99131.16
2022-11-10T07:18:31.729Z,99140.75
2022-11-10T07:21:36.582Z,99138.97
2022-11-10T07:24:42.027Z,99147.41
2022-11-10T07:27:47.438Z,99152.13
2022-11-10T07:30:53.410Z,99155.16
2022-11-10T07:34:09.174Z,99151.06
2022-11-10T07:37:14.102Z,99150.31
2022-11-10T07:40:19.076Z,99163.53
2022-11-10T07:43:25.570Z,99162.81
2022-11-10T07:46:31.054Z,99168.59
2022-11-10T07:49:39.889Z,99171.38
2022-11-10T07:52:44.521Z,99170.56
2022-11-10T07:55:49.930Z,99182.34
2022-11-10T07:58:55.034Z,99180.97
2022-11-10T08:01:59.865Z,99187.47
2022-11-10T08:05:06.563Z,99199.31
2022-11-10T08:08:11.901Z,99194.56
2022-11-10T08:11:17.402Z,99191.97
2022-11-10T08:14:25.268Z,99192.34
2022-11-10T08:17:30.050Z,99200.81
2022-11-10T08:20:36.731Z,99217.59
2022-11-10T08:23:41.492Z,99215.50
2022-11-10T08:26:46.180Z,99213.94
2022-11-10T08:29:51.001Z,99221.03
2022-11-10T08:32:57.961Z,99214.13
2022-11-10T08:36:04.360Z,99217.16
2022-11-10T08:39:09.855Z,99219.88
2022-11-10T08:42:14.541Z,99222.38
2022-11-10T08:45:19.274Z,99230.47
2022-11-10T08:48:24.206Z,99235.13
2022-11-10T08:51:34.876Z,99233.88
2022-11-10T08:54:42.460Z,99240.97
2022-11-10T08:57:47.325Z,99238.66
2022-11-10T09:00:55.274Z,99238.69
2022-11-10T09:04:00.108Z,99248.97
2022-11-10T09:07:07.202Z,99244.53
2022-11-10T09:10:12.495Z,99251.56
2022-11-10T09:13:18.285Z,99255.72
2022-11-10T09:16:23.144Z,99254.69
2022-11-10T09:19:28.293Z,99257.78
2022-11-10T09:22:34.571Z,99254.88
2022-11-10T09:25:39.711Z,99258.41
2022-11-10T09:28:44.778Z,99258.41
2022-11-10T09:31:49.749Z,99263.00
2022-11-10T09:34:54.684Z,99263.66
2022-11-10T09:38:01.122Z,99265.19
2022-11-10T09:41:09.031Z,99275.50
2022-11-10T09:44:19.781Z,99279.81
2022-11-10T09:47:56.690Z,99297.06
2022-11-10T09:50:56.170Z,99292.38
2022-11-10T09:54:06.952Z,99299.69
2022-11-10T09:57:17.424Z,99302.50
2022-11-10T10:00:22.401Z,99298.28
2022-11-10T10:03:32.176Z,99304.91
2022-11-10T10:07:09.616Z,99299.53
2022-11-10T10:10:17.777Z,99306.97
2022-11-10T10:13:45.546Z,99305.84
2022-11-10T10:17:00.291Z,99299.59
2022-11-10T10:20:13.054Z,99297.88
2022-11-10T10:23:40.733Z,99301.38
2022-11-10T10:26:55.800Z,99300.47
2022-11-10T10:30:00.829Z,99302.03
2022-11-10T10:33:16.474Z,99303.59
2022-11-10T10:36:24.953Z,99310.34
2022-11-10T10:39:33.856Z,99315.94
2022-11-10T10:42:40.377Z,99311.94
2022-11-10T10:45:45.124Z,99317.50
2022-11-10T10:48:53.826Z,99315.53
2022-11-10T10:52:12.526Z,99313.41
2022-11-10T10:55:17.413Z,99305.63
2022-11-10T10:58:27.483Z,99302.22
2022-11-10T11:01:33.455Z,99300.44
2022-11-10T11:04:39.930Z,99301.06
2022-11-10T11:07:55.795Z,99303.03
2022-11-10T11:11:09.795Z,99307.69
2022-11-10T11:14:23.025Z,99312.97
2022-11-10T11:17:28.362Z,99308.72
2022-11-10T11:20:40.828Z,99305.19
2022-11-10T11:24:00.635Z,99293.97
2022-11-10T11:27:13.962Z,99307.63
2022-11-10T11:30:21.675Z,99306.56
2022-11-10T11:33:45.299Z,99310.94
2022-11-10T11:37:05.327Z,99308.50
2022-11-10T11:40:28.641Z,99311.22
2022-11-10T11:43:57.433Z,99310.41
2022-11-10T11:47:14.741Z,99303.16
2022-11-10T11:50:30.455Z,99308.00
2022-11-10T11:53:50.535Z,99304.78
2022-11-10T11:57:00.238Z,99300.16
2022-11-10T12:00:10.833Z,99302.06
2022-11-10T12:03:57.927Z,99304.38
2022-11-10T12:07:15.286Z,99286.59
2022-11-10T12:10:31.198Z,99290.84
2022-11-10T12:13:54.038Z,99296.09
2022-11-10T12:17:08.868Z,99293.75
2022-11-10T12:20:37.070Z,99291.69
2022-11-10T12:23:52.121Z,99297.78
2022-11-10T12:27:01.571Z,99298.03
2022-11-10T12:30:11.956Z,99289.91
2022-11-10T12:33:25.353Z,99279.84
2022-11-10T12:36:34.631Z,99274.78
2022-11-10T12:39:48.325Z,99264.50
2022-11-10T12:43:00.626Z,99270.81
2022-11-10T12:46:08.560Z,99267.50
2022-11-10T12:49:21.295Z,99269.19
2022-11-10T12:52:34.838Z,99260.84
2022-11-10T12:55:43.735Z,99270.09
2022-11-10T12:58:48.249Z,99281.56
2022-11-10T13:01:59.125Z,99273.31
2022-11-10T13:05:25.488Z,99276.44
2022-11-10T13:08:50.535Z,99284.91
2022-11-10T13:12:17.397Z,99289.88
2022-11-10T13:15:58.204Z,99303.31
2022-11-10T13:19:03.972Z,99303.59
2022-11-10T13:22:12.957Z,99307.91
2022-11-10T13:26:04.142Z,99321.13
2022-11-10T13:29:29.710Z,99313.56
2022-11-10T13:32:37.537Z,99309.22
2022-11-10T13:35:55.956Z,99297.13
2022-11-10T13:39:24.404Z,99301.28
2022-11-10T13:42:29.736Z,99306.97
2022-11-10T13:45:47.590Z,99300.91
2022-11-10T13:49:27.126Z,99312.16
2022-11-10T13:52:51.149Z,99316.28
2022-11-10T13:56:10.259Z,99317.47
2022-11-10T13:59:22.106Z,99316.97
2022-11-10T14:02:48.595Z,99327.88
2022-11-10T14:06:11.419Z,99319.75
2022-11-10T14:09:29.355Z,99323.88
2022-11-10T14:12:43.300Z,99330.16
2022-11-10T14:15:50.264Z,99326.47
2022-11-10T14:19:04.171Z,99331.44
2022-11-10T14:22:22.577Z,99330.97
2022-11-10T14:25:35.259Z,99339.13
2022-11-10T14:28:40.433Z,99339.94
2022-11-10T14:31:47.201Z,99340.22
2022-11-10T14:34:56.618Z,99340.53
2022-11-10T14:38:02.157Z,99337.84
2022-11-10T14:41:08.861Z,99336.81
2022-11-10T14:44:22.099Z,99340.88
2022-11-10T14:47:31.415Z,99354.66
2022-11-10T14:50:38.414Z,99358.47
2022-11-10T14:53:50.187Z,99378.97
2022-11-10T14:56:55.562Z,99365.47
2022-11-10T15:00:00.254Z,99373.53
2022-11-10T15:03:06.628Z,99372.41
2022-11-10T15:06:14.635Z,99379.38
2022-11-10T15:09:25.612Z,99379.34
2022-11-10T15:12:30.781Z,99386.56
2022-11-10T15:15:35.955Z,99379.25
2022-11-10T15:18:41.074Z,99380.84
2022-11-10T15:21:48.840Z,99388.09
2022-11-10T15:24:54.216Z,99390.47
2022-11-10T15:28:02.526Z,99401.22
2022-11-10T15:31:10.734Z,99397.94
2022-11-10T15:34:31.840Z,99403.28
2022-11-10T15:37:38.378Z,99402.00
2022-11-10T15:40:47.677Z,99402.97
2022-11-10T15:43:52.468Z,99412.81
2022-11-10T15:46:58.893Z,99406.22
2022-11-10T15:50:06.083Z,99412.78
2022-11-10T15:53:18.233Z,99421.28
2022-11-10T15:56:24.273Z,99425.13
2022-11-10T15:59:29.021Z,99429.84
2022-11-10T16:02:33.626Z,99437.28
2022-11-10T16:05:40.590Z,99444.72
2022-11-10T16:08:48.276Z,99449.16
2022-11-10T16:11:53.229Z,99449.88
2022-11-10T16:15:00.002Z,99452.47
2022-11-10T16:18:04.998Z,99457.28
2022-11-10T16:21:13.496Z,99461.53
2022-11-10T16:24:19.942Z,99465.72
2022-11-10T16:27:24.790Z,99461.00
2022-11-10T16:30:30.206Z,99470.59
2022-11-10T16:33:34.874Z,99465.84
2022-11-10T16:36:42.063Z,99464.59
2022-11-10T16:39:48.184Z,99472.53
2022-11-10T16:42:53.232Z,99481.03
2022-11-10T16:46:00.441Z,99481.19
2022-11-10T16:49:07.568Z,99493.13
2022-11-10T16:52:18.021Z,99492.50
2022-11-10T16:55:24.382Z,99503.16
2022-11-10T16:58:29.258Z,99499.31
2022-11-10T17:01:37.694Z,99506.34
2022-11-10T17:04:42.389Z,99500.66
2022-11-10T17:07:47.107Z,99503.81
2022-11-10T17:10:53.717Z,99505.13
2022-11-10T17:13:58.657Z,99507.78
2022-11-10T17:17:04.552Z,99512.13
2022-11-10T17:20:11.448Z,99502.28
2022-11-10T17:23:18.473Z,99501.81
2022-11-10T17:26:24.874Z,99508.59
2022-11-10T17:29:30.265Z,99509.88
2022-11-10T17:33:03.775Z,99514.56
2022-11-10T17:36:05.362Z,99501.66
2022-11-10T17:39:15.221Z,99511.66
2022-11-10T17:42:21.646Z,99515.63
2022-11-10T17:45:28.598Z,99525.66
2022-11-10T17:48:33.405Z,99532.19
2022-11-10T17:51:38.777Z,99531.13
2022-11-10T17:54:43.714Z,99532.88
2022-11-10T17:57:51.273Z,99528.34
2022-11-10T18:00:57.416Z,99529.75
2022-11-10T18:04:04.025Z,99533.00
2022-11-10T18:07:08.919Z,99529.41
2022-11-10T18:10:16.297Z,99540.13
2022-11-10T18:13:22.795Z,99536.84
2022-11-10T18:16:27.932Z,99543.13
2022-11-10T18:19:32.703Z,99557.09
2022-11-10T18:22:37.589Z,99558.25
2022-11-10T18:25:43.109Z,99557.66
2022-11-10T18:28:50.672Z,99556.34
2022-11-10T18:31:55.473Z,99553.91
2022-11-10T18:35:00.322Z,99573.72
2022-11-10T18:38:05.449Z,99570.78
2022-11-10T18:41:27.610Z,99563.06
2022-11-10T18:44:37.517Z,99564.34
2022-11-10T18:47:42.198Z,99569.44
2022-11-10T18:50:54.773Z,99569.09
2022-11-10T18:53:59.936Z,99579.56
2022-11-10T18:57:05.115Z,99578.25
2022-11-10T19:00:14.816Z,99566.25
2022-11-10T19:03:20.199Z,99567.53
2022-11-10T19:06:25.703Z,99566.25
2022-11-10T19:09:30.780Z,99549.97
2022-11-10T19:12:35.741Z,99548.91
2022-11-10T19:15:44.161Z,99549.72
2022-11-10T19:18:51.021Z,99559.81
2022-11-10T19:21:55.820Z,99569.72
2022-11-10T19:25:07.987Z,99560.34
2022-11-10T19:28:13.435Z,99567.00
2022-11-10T19:31:23.299Z,99562.31
2022-11-10T19:34:28.286Z,99569.50
2022-11-10T19:37:36.546Z,99571.16
2022-11-10T19:40:41.122Z,99578.13
2022-11-10T19:43:47.642Z,99575.50
2022-11-10T19:46:54.095Z,99582.16
2022-11-10T19:49:58.888Z,99577.09
2022-11-10T19:53:03.706Z,99562.09
2022-11-10T19:56:12.815Z,99565.28
2022-11-10T19:59:21.510Z,99562.16
2022-11-10T20:02:28.003Z,99575.97
2022-11-10T20:05:32.904Z,99570.72
2022-11-10T20:08:37.850Z,99578.34
2022-11-10T20:11:42.606Z,99577.84
2022-11-10T20:14:47.987Z,99588.59
2022-11-10T20:17:54.640Z,99596.00
2022-11-10T20:21:04.585Z,99588.94
2022-11-10T20:24:10.059Z,99606.22
2022-11-10T20:27:14.750Z,99607.94
2022-11-10T20:30:23.813Z,99612.09
2022-11-10T20:33:33.452Z,99617.53
2022-11-10T20:36:39.116Z,99613.66
2022-11-10T20:39:43.986Z,99618.19
2022-11-10T20:42:48.757Z,99619.88
2022-11-10T20:45:54.588Z,99629.00
2022-11-10T20:49:01.602Z,99635.94
2022-11-10T20:52:06.505Z,99638.47
2022-11-10T20:55:09.895Z,99644.91
2022-11-10T20:58:12.656Z,99641.88
2022-11-10T21:01:16.418Z,99647.81
2022-11-10T21:04:20.589Z,99648.81
2022-11-10T21:07:23.288Z,99648.19
2022-11-10T21:10:25.989Z,99642.28
2022-11-10T21:13:29.313Z,99630.25
2022-11-10T21:16:31.953Z,99615.72
2022-11-10T21:19:36.660Z,99607.47
2022-11-10T21:22:39.361Z,99605.59
2022-11-10T21:25:42.030Z,99620.19
2022-11-10T21:28:44.666Z,99623.06
2022-11-10T21:31:47.824Z,99625.78
2022-11-10T21:34:51.966Z,99624.53
2022-11-10T21:37:54.869Z,99633.19
2022-11-10T21:40:58.736Z,99632.38
2022-11-10T21:44:01.429Z,99623.13
2022-11-10T21:47:04.111Z,99616.34
2022-11-10T21:50:09.554Z,99625.19
2022-11-10T21:53:12.213Z,99613.69
2022-11-10T21:56:15.182Z,99604.88
2022-11-10T21:59:19.191Z,99600.63
2022-11-10T22:02:21.823Z,99602.50
2022-11-10T22:05:25.913Z,99590.38
2022-11-10T22:08:28.621Z,99589.63
2022-11-10T22:11:48.745Z,99599.31
2022-11-10T22:15:08.884Z,99608.81
2022-11-10T22:18:31.471Z,99605.56
2022-11-10T22:21:35.728Z,99601.69
2022-11-10T22:24:38.338Z,99599.66
2022-11-10T22:27:40.985Z,99601.47
2022-11-10T22:30:43.648Z,99596.19
2022-11-10T22:33:46.427Z,99595.59
2022-11-10T22:36:50.471Z,99594.78
2022-11-10T22:40:10.493Z,99609.59
2022-11-10T22:43:30.645Z,99608.78
2022-11-10T22:46:35.347Z,99605.28
2022-11-10T22:49:38.032Z,99617.94
2022-11-10T22:52:42.000Z,99606.47
2022-11-10T22:55:44.618Z,99613.28
2022-11-10T22:58:47.573Z,99605.06
2022-11-10T23:01:50.279Z,99600.72
2022-11-10T23:04:52.972Z,99595.47
2022-11-10T23:07:57.334Z,99589.53
2022-11-10T23:11:01.159Z,99597.53
2022-11-10T23:14:04.116Z,99607.19
2022-11-10T23:17:06.721Z,99599.19
2022-11-10T23:20:10.896Z,99609.00
2022-11-10T23:23:15.127Z,99618.47
2022-11-10T23:26:20.292Z,99634.09
2022-11-10T23:29:23.136Z,99630.00
2022-11-10T23:32:25.797Z,99635.53
2022-11-10T23:35:28.456Z,99635.50
2022-11-10T23:38:33.253Z,99629.97
2022-11-10T23:41:35.947Z,99629.78
2022-11-10T23:44:38.675Z,99632.28
2022-11-10T23:47:41.570Z,99627.78
2022-11-10T23:50:44.276Z,99626.78
2022-11-10T23:53:48.340Z,99631.50
2022-11-10T23:56:50.976Z,99636.16
2022-11-10T23:59:53.663Z,99638.22
